Time;durP1;ratioP1;P1;durP2;ratioP2;P2;SDS_P1;SDS_P2;PMS_P1;PMS_P2;Temp;Humidity;BMP_temperature;BMP_pressure;BME280_temperature;BME280_humidity;BME280_pressure;Samples;Min_cycle;Max_cycle;Signal;HPM_P1;HPM_P2
2021/08/22 00:00:09;;;;;;;15.23;9.75;;;;;;;20.24;87.92;100276.81;4902281;29;20104;-80
2021/08/22 00:02:35;;;;;;;12.60;8.85;;;;;;;20.20;88.18;100291.50;4900979;29;20147;-79
2021/08/22 00:05:03;;;;;;;11.02;8.07;;;;;;;20.19;88.90;100292.47;4888513;29;20048;-79
2021/08/22 00:07:30;;;;;;;11.68;8.57;;;;;;;20.19;88.67;100308.63;4901673;29;20136;-80
2021/08/22 00:09:56;;;;;;;13.70;9.02;;;;;;;20.19;89.36;100312.16;4897435;29;20051;-80
2021/08/22 00:12:25;;;;;;;13.00;8.90;;;;;;;20.16;89.12;100307.03;4904049;29;20045;-80
2021/08/22 00:14:52;;;;;;;10.20;8.43;;;;;;;20.17;89.11;100306.06;4914227;29;20046;-79
2021/08/22 00:17:18;;;;;;;11.55;8.25;;;;;;;20.18;90.22;100309.59;4911278;29;20060;-79
2021/08/22 00:19:46;;;;;;;9.98;7.50;;;;;;;20.13;89.59;100298.44;4900859;29;20044;-79
2021/08/22 00:22:12;;;;;;;8.52;6.95;;;;;;;20.13;88.75;100290.34;4910258;29;20055;-77
2021/08/22 00:24:39;;;;;;;8.80;7.20;;;;;;;20.12;89.35;100277.91;4903981;29;20060;-80
2021/08/22 00:27:05;;;;;;;7.97;6.63;;;;;;;20.10;88.55;100279.88;4906373;29;20755;-78
2021/08/22 00:29:32;;;;;;;11.15;7.28;;;;;;;20.12;88.96;100292.19;4900443;29;20052;-78
2021/08/22 00:31:58;;;;;;;9.80;6.47;;;;;;;20.10;89.54;100302.22;4904582;29;20046;-78
2021/08/22 00:34:25;;;;;;;9.93;6.80;;;;;;;20.13;90.18;100311.88;4904415;29;20045;-80
2021/08/22 00:36:54;;;;;;;9.80;7.13;;;;;;;20.14;90.36;100314.44;4921264;29;20052;-79
2021/08/22 00:39:23;;;;;;;7.38;6.22;;;;;;;20.15;90.59;100328.69;4915421;29;20115;-79
2021/08/22 00:41:50;;;;;;;8.88;7.10;;;;;;;20.14;91.08;100335.06;4917820;29;20104;-79
2021/08/22 00:44:16;;;;;;;7.07;6.38;;;;;;;20.16;90.48;100330.38;4904743;29;20047;-79
2021/08/22 00:46:43;;;;;;;8.18;6.53;;;;;;;20.16;90.60;100343.84;4919911;29;20056;-79
2021/08/22 00:49:10;;;;;;;7.93;6.50;;;;;;;20.17;90.88;100342.84;4904791;29;20052;-79
2021/08/22 00:51:39;;;;;;;7.07;5.93;;;;;;;20.15;89.83;100342.13;4907833;29;20060;-78
2021/08/22 00:54:07;;;;;;;7.72;5.82;;;;;;;20.13;89.66;100347.66;4898041;29;20055;-78
2021/08/22 00:56:34;;;;;;;8.07;5.70;;;;;;;20.12;89.54;100345.13;4901202;29;20074;-78
2021/08/22 00:59:06;;;;;;;6.88;5.60;;;;;;;20.11;89.62;100349.63;4904029;29;20048;-79
2021/08/22 01:01:34;;;;;;;9.43;5.80;;;;;;;20.09;89.53;100337.31;4914809;29;20071;-79
2021/08/22 01:04:19;;;;;;;7.60;5.63;;;;;;;20.08;89.75;100343.66;4909929;29;20048;-79
2021/08/22 01:07:01;;;;;;;9.13;6.22;;;;;;;20.07;90.37;100339.28;4910354;29;20385;-79
2021/08/22 01:09:38;;;;;;;10.25;6.68;;;;;;;20.01;90.64;100329.03;4912377;29;20062;-77
2021/08/22 01:12:09;;;;;;;8.35;6.32;;;;;;;19.95;91.36;100327.75;4914814;29;20183;-79
2021/08/22 01:14:42;;;;;;;7.90;6.18;;;;;;;19.89;91.09;100321.06;4911652;29;20480;-79
2021/08/22 01:17:09;;;;;;;6.80;5.80;;;;;;;19.84;90.54;100317.91;4919704;29;20053;-78
2021/08/22 01:19:57;;;;;;;8.85;5.78;;;;;;;19.84;90.41;100320.63;4908060;29;20043;-79
2021/08/22 01:22:25;;;;;;;7.72;5.90;;;;;;;19.84;90.90;100314.38;4906732;29;20416;-79
2021/08/22 01:24:53;;;;;;;7.93;5.65;;;;;;;19.80;90.56;100310.28;4901695;29;20052;-79
2021/08/22 01:27:21;;;;;;;7.35;5.40;;;;;;;19.80;90.38;100315.66;4900626;29;20052;-79
2021/08/22 01:29:58;;;;;;;8.85;5.80;;;;;;;19.81;90.22;100312.00;4902044;29;20051;-79
2021/08/22 01:32:36;;;;;;;7.68;5.80;;;;;;;19.80;89.33;100329.09;4901787;29;20045;-80
2021/08/22 01:35:04;;;;;;;6.90;5.43;;;;;;;19.78;88.64;100323.00;4907353;29;20066;-79
2021/08/22 01:37:32;;;;;;;7.90;5.70;;;;;;;19.73;88.95;100319.84;4901566;29;20056;-79
2021/08/22 01:40:00;;;;;;;8.95;5.90;;;;;;;19.62;89.34;100326.16;4898731;29;20060;-79
2021/08/22 01:42:29;;;;;;;8.63;6.22;;;;;;;19.63;89.53;100327.84;4890925;29;20496;-79
2021/08/22 01:44:58;;;;;;;9.48;5.97;;;;;;;19.63;89.21;100335.91;4903350;29;20068;-79
2021/08/22 01:47:25;;;;;;;8.27;5.85;;;;;;;19.61;89.34;100327.13;4895251;29;20044;-79
2021/08/22 01:49:54;;;;;;;6.18;5.40;;;;;;;19.55;89.78;100335.69;4899408;29;20049;-79
2021/08/22 01:52:21;;;;;;;6.80;5.88;;;;;;;19.47;88.78;100336.34;4898108;29;20052;-79
2021/08/22 01:54:48;;;;;;;6.68;5.45;;;;;;;19.42;89.06;100333.19;4900909;29;20047;-79
2021/08/22 01:57:14;;;;;;;7.75;5.65;;;;;;;19.37;89.28;100340.75;4896557;29;20459;-79
2021/08/22 01:59:41;;;;;;;12.52;5.90;;;;;;;19.34;89.38;100334.81;4895028;29;20053;-79
2021/08/22 02:02:09;;;;;;;7.40;5.97;;;;;;;19.31;89.53;100330.56;4894989;29;20107;-78
2021/08/22 02:04:54;;;;;;;9.13;6.15;;;;;;;19.29;90.06;100335.19;4900538;29;20631;-79
2021/08/22 02:07:24;;;;;;;6.82;5.53;;;;;;;19.28;90.81;100328.97;4894855;29;20045;-79
2021/08/22 02:10:00;;;;;;;8.30;6.05;;;;;;;19.26;90.29;100336.31;4896683;29;20048;-79
2021/08/22 02:12:27;;;;;;;7.78;5.80;;;;;;;19.25;90.39;100350.72;4907304;29;20055;-79
2021/08/22 02:14:59;;;;;;;8.38;5.88;;;;;;;19.25;90.10;100358.75;4901651;29;20074;-79
2021/08/22 02:17:47;;;;;;;8.02;5.60;;;;;;;19.30;89.53;100344.97;4882789;29;20187;-79
2021/08/22 02:20:15;;;;;;;7.32;5.30;;;;;;;19.30;89.36;100357.53;4888019;29;20049;-79
2021/08/22 02:22:45;;;;;;;6.45;5.72;;;;;;;19.28;89.68;100345.09;4884185;29;20048;-78
2021/08/22 02:25:13;;;;;;;7.97;5.57;;;;;;;19.24;89.46;100346.31;4902030;29;20056;-78
2021/08/22 02:27:40;;;;;;;8.45;5.80;;;;;;;19.22;90.01;100359.00;4899360;29;20656;-78
2021/08/22 02:30:08;;;;;;;9.75;5.72;;;;;;;19.20;89.91;100350.22;4904536;29;20058;-79
2021/08/22 02:32:34;;;;;;;7.10;5.65;;;;;;;19.16;90.04;100347.94;4901909;29;20053;-79
2021/08/22 02:35:01;;;;;;;6.65;5.30;;;;;;;19.12;90.33;100352.72;4901539;29;20044;-79
2021/08/22 02:37:28;;;;;;;7.60;5.80;;;;;;;19.10;90.43;100356.50;4903627;29;20070;-79
2021/08/22 02:39:56;;;;;;;7.88;5.40;;;;;;;19.06;90.84;100345.16;4896242;29;20559;-79
2021/08/22 02:42:23;;;;;;;7.70;5.50;;;;;;;19.03;90.81;100347.28;4885211;29;20047;-79
2021/08/22 02:44:50;;;;;;;7.43;5.63;;;;;;;18.99;90.58;100338.63;4901115;29;20131;-78
2021/08/22 02:47:17;;;;;;;8.95;5.38;;;;;;;18.98;91.10;100338.75;4897193;29;20080;-79
2021/08/22 02:49:43;;;;;;;7.55;5.50;;;;;;;18.96;91.00;100338.88;4898908;29;20059;-79
2021/08/22 02:52:10;;;;;;;5.80;5.03;;;;;;;18.97;91.22;100345.94;4899896;29;20457;-79
2021/08/22 02:54:37;;;;;;;6.68;5.25;;;;;;;18.97;91.26;100343.25;4896095;29;20063;-79
2021/08/22 02:57:04;;;;;;;6.78;5.20;;;;;;;18.96;91.18;100340.69;4897068;29;20165;-79
2021/08/22 02:59:30;;;;;;;7.47;5.25;;;;;;;18.96;91.08;100346.06;4904175;29;20056;-79
2021/08/22 03:01:57;;;;;;;6.25;5.10;;;;;;;18.97;91.26;100345.94;4904118;29;20095;-79
2021/08/22 03:04:24;;;;;;;8.07;5.28;;;;;;;18.93;91.44;100342.66;4897488;29;20053;-79
2021/08/22 03:06:50;;;;;;;7.75;5.18;;;;;;;18.91;91.70;100341.91;4896262;29;20075;-79
2021/08/22 03:09:17;;;;;;;6.53;4.70;;;;;;;18.90;91.25;100342.91;4895570;29;20045;-79
2021/08/22 03:11:43;;;;;;;6.05;4.90;;;;;;;18.91;91.54;100344.59;4901760;29;20053;-79
2021/08/22 03:14:11;;;;;;;8.80;4.95;;;;;;;18.92;91.32;100340.94;4891863;29;20497;-79
2021/08/22 03:16:38;;;;;;;8.73;5.07;;;;;;;18.92;91.35;100345.44;4905764;29;20056;-79
2021/08/22 03:19:04;;;;;;;7.90;5.28;;;;;;;18.90;91.53;100342.91;4898422;29;20103;-79
2021/08/22 03:21:31;;;;;;;8.50;5.05;;;;;;;18.90;91.71;100344.72;4910088;29;20044;-79
2021/08/22 03:23:58;;;;;;;8.35;5.07;;;;;;;18.91;91.86;100335.69;4900863;29;20047;-79
2021/08/22 03:26:24;;;;;;;8.18;5.38;;;;;;;18.92;92.39;100334.72;4900446;29;20045;-79
2021/08/22 03:28:51;;;;;;;6.78;5.00;;;;;;;18.93;92.25;100333.75;4910819;29;20052;-79
2021/08/22 03:31:18;;;;;;;6.85;5.28;;;;;;;18.93;91.85;100336.44;4908026;29;20036;-79
2021/08/22 03:33:45;;;;;;;6.88;5.10;;;;;;;18.92;91.96;100337.41;4904219;29;20100;-79
2021/08/22 03:36:12;;;;;;;7.53;5.38;;;;;;;18.88;91.56;100341.34;4909513;29;20071;-79
2021/08/22 03:38:38;;;;;;;8.07;5.50;;;;;;;18.87;92.41;100342.31;4903652;29;20106;-79
2021/08/22 03:41:05;;;;;;;6.40;5.00;;;;;;;18.88;92.41;100346.72;4900550;29;20044;-79
2021/08/22 03:43:31;;;;;;;7.85;5.60;;;;;;;18.87;92.02;100347.69;4908782;29;20048;-79
2021/08/22 03:45:58;;;;;;;6.82;5.35;;;;;;;18.85;92.17;100353.16;4902234;29;20044;-79
2021/08/22 03:48:25;;;;;;;6.88;5.20;;;;;;;18.83;92.36;100354.28;4902648;29;20110;-79
2021/08/22 03:50:51;;;;;;;7.15;4.78;;;;;;;18.80;92.39;100352.69;4906870;29;20050;-79
2021/08/22 03:53:18;;;;;;;7.55;5.00;;;;;;;18.82;92.62;100366.84;4908224;29;20040;-79
2021/08/22 03:55:45;;;;;;;6.35;4.78;;;;;;;18.79;92.78;100358.19;4914144;29;20067;-79
2021/08/22 03:58:11;;;;;;;7.45;4.90;;;;;;;18.77;92.81;100360.97;4911990;29;20055;-79
2021/08/22 04:00:38;;;;;;;10.70;4.50;;;;;;;18.75;93.13;100359.41;4912007;29;20045;-79
2021/08/22 04:03:05;;;;;;;9.23;5.05;;;;;;;18.74;93.53;100360.38;4901862;29;20071;-78
2021/08/22 04:05:33;;;;;;;5.28;4.25;;;;;;;18.73;93.56;100362.19;4913654;29;20040;-79
2021/08/22 04:08:00;;;;;;;7.20;5.15;;;;;;;18.73;93.78;100358.69;4906853;29;20576;-78
2021/08/22 04:10:27;;;;;;;8.13;4.88;;;;;;;18.73;93.83;100367.56;4907281;29;20044;-79
2021/08/22 04:12:54;;;;;;;6.60;5.00;;;;;;;18.71;94.29;100352.59;4907086;29;20086;-79
2021/08/22 04:15:22;;;;;;;7.95;4.80;;;;;;;18.75;94.27;100367.44;4897593;29;20128;-79
2021/08/22 04:17:49;;;;;;;6.47;4.72;;;;;;;18.76;94.45;100366.47;4916508;29;20044;-79
2021/08/22 04:20:16;;;;;;;5.75;4.90;;;;;;;18.71;94.10;100368.69;4916829;29;20156;-79
2021/08/22 04:22:44;;;;;;;5.78;4.82;;;;;;;18.69;94.28;100371.50;4917662;29;20055;-79
2021/08/22 04:25:12;;;;;;;7.40;4.85;;;;;;;18.73;94.80;100380.97;4915026;29;20055;-79
2021/08/22 04:27:40;;;;;;;5.60;4.78;;;;;;;18.74;94.89;100373.78;4897717;29;20056;-79
2021/08/22 04:30:10;;;;;;;7.25;4.95;;;;;;;18.76;95.12;100374.50;4905404;29;20066;-79
2021/08/22 04:32:38;;;;;;;6.63;5.20;;;;;;;18.75;94.49;100379.03;4907738;29;20057;-79
2021/08/22 04:35:08;;;;;;;;;;;;;;;18.75;94.05;100381.72;4906666;29;20407;-79
2021/08/22 04:37:34;;;;;;;6.95;5.07;;;;;;;18.71;94.40;100380.28;4908476;29;19919;-79
2021/08/22 04:40:06;;;;;;;7.87;5.43;;;;;;;18.68;94.72;100380.50;4904379;29;20076;-79
2021/08/22 04:42:32;;;;;;;6.70;4.95;;;;;;;18.69;95.03;100381.38;4903716;29;20064;-79
2021/08/22 04:45:00;;;;;;;8.20;5.32;;;;;;;18.68;95.43;100395.75;4909869;29;20048;-78
2021/08/22 04:47:26;;;;;;;6.55;5.18;;;;;;;18.67;95.23;100386.84;4902059;29;20423;-78
2021/08/22 04:49:53;;;;;;;8.15;6.07;;;;;;;18.67;95.31;100392.22;4904962;29;20037;-78
2021/08/22 04:52:20;;;;;;;9.82;5.70;;;;;;;18.69;95.32;100382.22;4905730;29;20049;-78
2021/08/22 04:54:46;;;;;;;8.98;5.40;;;;;;;18.71;95.61;100382.09;4899016;29;20154;-78
2021/08/22 04:57:13;;;;;;;8.02;5.90;;;;;;;18.71;95.27;100380.28;4883850;29;20053;-79
2021/08/22 04:59:40;;;;;;;7.18;5.30;;;;;;;18.75;94.94;100386.22;4890498;29;20076;-79
2021/08/22 05:02:06;;;;;;;6.65;4.65;;;;;;;18.74;94.35;100388.03;4901692;29;20041;-79
2021/08/22 05:04:33;;;;;;;6.82;5.25;;;;;;;18.80;94.75;100392.06;4899397;29;20056;-78
2021/08/22 05:07:00;;;;;;;7.25;4.88;;;;;;;18.83;94.69;100390.00;4899275;29;20052;-79
2021/08/22 05:09:26;;;;;;;8.27;5.45;;;;;;;18.84;94.01;100391.72;4903023;29;20051;-79
2021/08/22 05:11:53;;;;;;;7.63;5.47;;;;;;;18.85;93.62;100400.63;4910551;29;20100;-79
2021/08/22 05:14:19;;;;;;;6.70;5.43;;;;;;;18.86;93.60;100399.63;4913178;29;20116;-79
2021/08/22 05:16:46;;;;;;;8.23;5.70;;;;;;;18.88;93.61;100393.19;4916418;29;20041;-79
2021/08/22 05:19:12;;;;;;;8.52;5.65;;;;;;;18.92;93.41;100399.13;4907790;29;20100;-79
2021/08/22 05:21:38;;;;;;;6.85;5.65;;;;;;;18.89;92.83;100402.91;4897662;29;20101;-79
2021/08/22 05:24:05;;;;;;;7.82;5.72;;;;;;;18.87;93.13;100396.84;4899863;29;20050;-79
2021/08/22 05:26:32;;;;;;;7.63;5.85;;;;;;;18.92;93.70;100393.75;4899080;29;20050;-79
2021/08/22 05:28:58;;;;;;;9.50;5.70;;;;;;;18.94;93.33;100399.84;4903203;29;20439;-79
2021/08/22 05:31:25;;;;;;;9.50;5.85;;;;;;;18.93;93.12;100404.38;4896872;29;20083;-79
2021/08/22 05:33:52;;;;;;;8.85;5.47;;;;;;;18.96;92.95;100397.91;4904389;29;20063;-78
2021/08/22 05:36:21;;;;;;;7.22;5.55;;;;;;;19.02;92.87;100405.47;4895755;29;20061;-78
2021/08/22 05:38:49;;;;;;;7.22;5.35;;;;;;;19.07;92.41;100413.97;4896043;29;20040;-78
2021/08/22 05:41:15;;;;;;;7.07;5.72;;;;;;;19.06;91.41;100412.25;4893234;29;20075;-79
2021/08/22 05:43:42;;;;;;;8.88;5.80;;;;;;;19.08;91.65;100413.00;4902981;29;20127;-78
2021/08/22 05:46:09;;;;;;;7.60;5.28;;;;;;;19.18;92.14;100408.59;4886243;29;20131;-78
2021/08/22 05:48:38;;;;;;;7.63;5.45;;;;;;;19.27;91.50;100407.81;4895675;29;20045;-78
2021/08/22 05:51:05;;;;;;;6.63;5.18;;;;;;;19.35;90.44;100412.56;4898006;29;20055;-79
2021/08/22 05:53:32;;;;;;;8.82;5.68;;;;;;;19.40;90.60;100414.84;4903375;29;20055;-79
2021/08/22 05:55:58;;;;;;;7.00;5.35;;;;;;;19.41;90.70;100422.78;4897152;29;20060;-79
2021/08/22 05:58:25;;;;;;;6.63;5.68;;;;;;;19.39;90.77;100422.03;4899846;29;20053;-78
2021/08/22 06:00:52;;;;;;;7.75;5.78;;;;;;;19.42;90.20;100424.47;4889541;29;20052;-79
2021/08/22 06:03:18;;;;;;;8.00;5.40;;;;;;;19.39;90.16;100424.72;4896184;29;20056;-79
2021/08/22 06:05:46;;;;;;;7.85;5.50;;;;;;;19.37;90.29;100429.38;4904476;29;20687;-79
2021/08/22 06:08:13;;;;;;;6.90;5.30;;;;;;;19.37;90.36;100425.84;4903351;29;20056;-79
2021/08/22 06:10:39;;;;;;;8.25;5.63;;;;;;;19.35;90.54;100438.56;4907886;29;20325;-79
2021/08/22 06:13:06;;;;;;;7.88;6.25;;;;;;;19.33;90.41;100444.06;4902777;29;20053;-79
2021/08/22 06:15:32;;;;;;;7.68;5.65;;;;;;;19.34;90.18;100451.13;4898768;29;20044;-79
2021/08/22 06:17:59;;;;;;;14.30;5.55;;;;;;;19.31;91.08;100448.69;4903713;29;20120;-79
2021/08/22 06:20:26;;;;;;;6.80;5.28;;;;;;;19.38;90.60;100443.66;4903689;29;20047;-79
2021/08/22 06:22:52;;;;;;;8.05;5.50;;;;;;;19.40;89.96;100447.94;4895659;29;20056;-79
2021/08/22 06:25:19;;;;;;;6.47;5.57;;;;;;;19.45;nan;100443.03;4889875;29;20052;-79
2021/08/22 06:27:46;;;;;;;11.43;6.43;;;;;;;19.42;89.38;100437.91;4900215;29;20084;-79
2021/08/22 06:30:13;;;;;;;9.00;5.53;;;;;;;19.52;89.73;100440.69;4899334;29;20040;-79
2021/08/22 06:32:39;;;;;;;7.85;5.53;;;;;;;19.67;89.91;100452.03;4898508;29;20044;-79
2021/08/22 06:35:06;;;;;;;10.63;6.28;;;;;;;19.81;88.62;100454.41;4905022;29;20096;-78
2021/08/22 06:37:36;;;;;;;6.45;5.82;;;;;;;19.98;87.37;100458.34;4903569;29;20056;-78
2021/08/22 06:40:05;;;;;;;7.53;6.22;;;;;;;20.08;86.95;100464.63;4898034;29;20043;-79
2021/08/22 06:42:31;;;;;;;7.35;5.97;;;;;;;20.08;85.64;100465.50;4900117;29;20055;-78
2021/08/22 06:44:58;;;;;;;7.22;5.90;;;;;;;20.11;86.59;100464.38;4896223;29;20504;-79
2021/08/22 06:47:24;;;;;;;8.85;5.72;;;;;;;20.14;86.37;100475.72;4890171;29;20048;-78
2021/08/22 06:49:51;;;;;;;7.65;5.85;;;;;;;20.13;85.27;100465.09;4897667;29;20488;-79
2021/08/22 06:52:18;;;;;;;7.07;5.80;;;;;;;20.11;86.07;100475.13;4896203;29;20040;-79
2021/08/22 06:54:44;;;;;;;8.80;6.15;;;;;;;20.10;85.81;100473.44;4903687;29;21350;-79
2021/08/22 06:57:12;;;;;;;10.77;6.82;;;;;;;20.13;86.05;100473.19;4893286;29;20171;-79
2021/08/22 06:59:39;;;;;;;9.73;6.63;;;;;;;20.15;86.08;100466.66;4903869;29;20055;-79
2021/08/22 07:02:06;;;;;;;9.48;6.93;;;;;;;20.16;86.31;100472.88;4897848;29;20050;-78
2021/08/22 07:04:35;;;;;;;9.55;6.78;;;;;;;20.19;87.16;100475.31;4897765;29;20056;-78
2021/08/22 07:07:01;;;;;;;10.93;6.65;;;;;;;20.30;86.27;100472.59;4890305;29;20101;-78
2021/08/22 07:09:28;;;;;;;8.82;7.45;;;;;;;20.42;86.28;100479.63;4893288;29;20063;-78
2021/08/22 07:11:54;;;;;;;12.82;6.85;;;;;;;20.50;85.41;100482.47;4896049;29;20061;-78
2021/08/22 07:14:21;;;;;;;10.70;6.95;;;;;;;20.50;84.41;100479.78;4902366;29;20057;-78
2021/08/22 07:16:48;;;;;;;9.55;6.70;;;;;;;20.52;85.02;100479.66;4880455;29;20048;-78
2021/08/22 07:19:15;;;;;;;9.25;6.47;;;;;;;20.51;84.45;100468.03;4898134;29;20081;-80
2021/08/22 07:21:41;;;;;;;9.65;7.18;;;;;;;20.66;84.99;100477.47;4897602;29;20455;-79
2021/08/22 07:24:08;;;;;;;11.05;7.18;;;;;;;20.80;83.78;100472.69;4891465;29;20131;-78
2021/08/22 07:26:35;;;;;;;9.52;6.80;;;;;;;20.91;82.58;100481.56;4901301;29;20071;-80
2021/08/22 07:29:03;;;;;;;8.57;6.60;;;;;;;21.03;82.59;100468.84;4897564;29;20057;-78
2021/08/22 07:31:31;;;;;;;8.50;6.65;;;;;;;21.19;80.60;100474.56;4892479;29;20817;-79
2021/08/22 07:34:00;;;;;;;;;;;;;;;21.37;80.85;100471.22;4891675;29;20055;-80
2021/08/22 07:36:27;;;;;;;8.18;6.47;;;;;;;21.50;79.90;100466.41;4897858;29;19928;-88
2021/08/22 07:39:03;;;;;;;10.85;7.47;;;;;;;21.65;78.92;100465.84;4914228;29;20064;-88
2021/08/22 07:41:56;;;;;;;10.52;6.63;;;;;;;21.72;77.52;100454.53;4897596;29;20064;-88
2021/08/22 07:44:29;;;;;;;9.90;6.50;;;;;;;21.72;77.96;100463.47;4919925;29;20049;-88
2021/08/22 07:47:00;;;;;;;9.13;6.78;;;;;;;21.62;76.95;100465.28;4898354;29;20039;-89
2021/08/22 07:49:29;;;;;;;7.63;6.80;;;;;;;21.43;78.56;100462.56;4917185;29;20042;-86
2021/08/22 07:54:40;;;;;;;10.18;7.18;;;;;;;21.41;78.82;100464.56;5408948;23;20061;-87
2021/08/22 07:57:08;;;;;;;11.15;6.60;;;;;;;21.34;79.75;100467.81;5146738;23;20068;-87
2021/08/22 07:59:38;;;;;;;10.48;6.65;;;;;;;21.31;78.69;100468.06;4920341;29;20037;-86
2021/08/22 08:02:06;;;;;;;7.70;5.97;;;;;;;21.26;79.19;100470.31;4915884;29;20271;-87
2021/08/22 08:04:33;;;;;;;10.55;6.45;;;;;;;21.28;79.09;100476.44;5044666;23;20068;-86
2021/08/22 08:07:00;;;;;;;8.18;5.88;;;;;;;21.34;79.12;100475.03;4924810;28;20047;-84
2021/08/22 08:09:27;;;;;;;9.80;6.07;;;;;;;21.45;77.46;100474.03;4939205;29;20040;-86
2021/08/22 08:11:57;;;;;;;8.88;5.63;;;;;;;21.53;77.54;100477.75;4912498;29;20107;-84
2021/08/22 08:14:26;;;;;;;10.93;6.78;;;;;;;21.60;76.32;100478.03;4917323;29;20041;-84
2021/08/22 08:16:52;;;;;;;11.38;6.38;;;;;;;21.57;76.13;100478.31;4920940;29;20568;-87
2021/08/22 08:19:19;;;;;;;8.93;5.30;;;;;;;21.64;76.00;100477.63;4919824;29;20052;-84
2021/08/22 08:21:45;;;;;;;9.52;6.00;;;;;;;21.69;74.54;100477.22;4907256;29;20056;-85
2021/08/22 08:24:14;;;;;;;8.40;4.95;;;;;;;21.64;75.15;100471.38;4914640;29;20053;-86
2021/08/22 08:26:40;;;;;;;5.57;4.78;;;;;;;21.64;75.22;100480.31;4924484;29;20044;-85
2021/08/22 08:29:07;;;;;;;7.38;5.32;;;;;;;21.60;75.03;100486.97;4930987;29;20062;-86
2021/08/22 08:31:35;;;;;;;7.25;5.43;;;;;;;21.63;75.09;100485.84;4930444;29;20056;-85
2021/08/22 08:34:03;;;;;;;5.75;5.07;;;;;;;21.64;74.79;100479.47;4939523;29;20056;-85
2021/08/22 08:36:30;;;;;;;9.27;5.95;;;;;;;21.63;74.66;100488.53;4931351;29;20051;-86
2021/08/22 08:38:56;;;;;;;6.47;5.25;;;;;;;21.66;75.08;100494.50;4925075;29;20059;-87
2021/08/22 08:41:23;;;;;;;10.52;5.35;;;;;;;21.74;74.41;100484.84;4920066;29;20056;-87
2021/08/22 08:43:50;;;;;;;8.95;5.28;;;;;;;21.79;74.08;100478.06;4922900;29;20075;-86
2021/08/22 08:46:16;;;;;;;6.30;5.25;;;;;;;21.88;74.16;100485.28;4929639;28;20083;-86
2021/08/22 08:49:02;;;;;;;10.18;5.80;;;;;;;21.81;73.63;100480.59;4919361;29;20099;-86
2021/08/22 08:51:43;;;;;;;7.18;5.50;;;;;;;21.75;74.21;100482.00;4918758;29;20059;-87
2021/08/22 08:54:18;;;;;;;7.45;5.20;;;;;;;21.77;74.28;100488.13;4895147;29;20381;-85
2021/08/22 08:56:46;;;;;;;6.20;5.15;;;;;;;21.81;73.72;100484.16;4917939;29;20079;-87
2021/08/22 08:59:13;;;;;;;7.78;4.88;;;;;;;21.93;72.91;100490.25;4903670;29;20501;-89
2021/08/22 09:01:40;;;;;;;7.50;5.15;;;;;;;21.97;72.38;100487.13;4917411;29;20052;-88
2021/08/22 09:04:36;;;;;;;8.25;5.10;;;;;;;21.97;71.91;100486.28;4927156;28;20044;-89
2021/08/22 09:10:23;;;;;;;7.85;4.90;;;;;;;21.97;72.10;100481.75;5322455;23;20022;-87
2021/08/22 09:13:56;;;;;;;9.50;5.13;;;;;;;21.88;71.91;100495.25;4945516;23;20048;-88
2021/08/22 09:17:16;;;;;;;6.25;5.00;;;;;;;21.82;72.83;100496.66;4886868;29;20085;-89
2021/08/22 09:19:55;;;;;;;6.40;4.80;;;;;;;21.90;72.35;100506.69;4870772;29;20055;-87
2021/08/22 09:23:06;;;;;;;8.57;4.88;;;;;;;21.95;72.30;100505.28;4918603;29;20066;-88
2021/08/22 09:25:35;;;;;;;;;;;;;;;22.04;71.01;100509.84;4900717;29;20052;-85
2021/08/22 09:28:18;;;;;;;7.93;5.33;;;;;;;22.10;71.12;100510.28;4918447;29;19927;-87
2021/08/22 09:31:25;;;;;;;4.90;4.40;;;;;;;22.15;71.01;100516.13;4914481;29;20487;-86
2021/08/22 09:34:42;;;;;;;6.13;4.50;;;;;;;22.08;70.13;100509.56;4914935;29;20051;-87
2021/08/22 09:37:29;;;;;;;6.32;4.53;;;;;;;22.13;70.71;100510.00;4920767;29;20096;-86
2021/08/22 09:40:24;;;;;;;5.75;4.43;;;;;;;22.25;70.26;100519.63;4915929;29;20103;-87
2021/08/22 09:43:35;;;;;;;5.90;4.85;;;;;;;22.31;70.74;100502.88;4915033;29;20048;-88
2021/08/22 09:46:41;;;;;;;7.45;4.80;;;;;;;22.43;69.86;100507.13;4894566;29;20044;-87
2021/08/22 09:49:53;;;;;;;6.10;4.78;;;;;;;22.44;68.95;100503.44;4919453;29;20120;-88
2021/08/22 09:53:05;;;;;;;5.60;4.35;;;;;;;22.34;69.70;100492.66;4923685;29;20075;-89
2021/08/22 09:56:17;;;;;;;5.18;4.35;;;;;;;22.26;67.91;100486.28;4917685;29;20485;-86
2021/08/22 10:10:27;;;;;;;7.60;4.95;;;;;;;22.25;68.10;100504.31;6271076;22;20691;-90
2021/08/22 10:16:59;;;;;;;8.35;4.75;;;;;;;22.79;67.09;100499.25;6318083;22;20023;-90
2021/08/22 10:19:51;;;;;;;5.63;4.82;;;;;;;22.89;67.13;100494.66;6295404;22;20022;-88
2021/08/22 10:23:03;;;;;;;5.00;4.10;;;;;;;23.01;66.28;100499.69;6288658;22;20026;-88
2021/08/22 10:26:41;;;;;;;5.95;4.70;;;;;;;23.04;66.14;100495.84;6312289;22;20019;-90
2021/08/22 10:29:53;;;;;;;5.72;4.80;;;;;;;23.09;65.45;100498.97;6319597;22;20083;-86
2021/08/22 10:32:37;;;;;;;5.03;4.28;;;;;;;23.08;65.33;100483.75;6326878;22;20030;-89
2021/08/22 10:35:19;;;;;;;4.88;4.13;;;;;;;23.12;64.97;100484.31;6303924;22;20042;-87
2021/08/22 10:38:21;;;;;;;5.35;4.32;;;;;;;23.50;65.01;100475.94;6337044;22;20057;-88
2021/08/22 10:41:58;;;;;;;5.63;4.22;;;;;;;23.66;62.76;100478.84;6317341;22;20037;-88
2021/08/22 10:45:09;;;;;;;5.22;4.57;;;;;;;23.68;62.13;100452.50;6295237;22;20054;-88
2021/08/22 10:47:43;;;;;;;5.80;4.40;;;;;;;23.71;62.67;100445.97;6255940;23;20030;-88
2021/08/22 10:50:27;;;;;;;4.95;4.22;;;;;;;23.77;61.64;100438.06;6279593;22;20081;-88
2021/08/22 10:54:08;;;;;;;5.15;4.50;;;;;;;23.81;61.19;100443.16;6263802;23;20031;-87
2021/08/22 10:57:56;;;;;;;5.70;4.30;;;;;;;23.74;61.31;100432.13;6177421;23;20024;-89
2021/08/22 11:00:41;;;;;;;5.53;4.80;;;;;;;23.90;60.66;100428.72;6259762;23;20026;-88
2021/08/22 11:04:03;;;;;;;4.82;4.18;;;;;;;24.36;59.52;100425.69;6166033;23;20138;-88
2021/08/22 11:06:36;;;;;;;4.45;4.05;;;;;;;24.58;58.10;100426.97;6178571;22;20106;-88
2021/08/22 11:09:06;;;;;;;5.35;4.60;;;;;;;24.76;56.80;100419.63;6283941;22;20054;-87
2021/08/22 11:11:43;;;;;;;5.32;4.07;;;;;;;25.20;56.01;100424.03;6279771;22;20020;-85
2021/08/22 11:14:47;;;;;;;4.07;3.67;;;;;;;25.47;55.03;100424.63;6288602;22;20039;-88
2021/08/22 11:17:48;;;;;;;4.82;4.00;;;;;;;25.55;53.82;100412.94;6290576;22;20019;-89
2021/08/22 11:21:19;;;;;;;4.75;4.00;;;;;;;25.56;53.18;100408.34;6274918;22;20024;-89
2021/08/22 11:24:36;;;;;;;4.47;4.07;;;;;;;25.32;53.65;100401.91;6297425;22;20071;-90
2021/08/22 11:27:58;;;;;;;5.10;4.13;;;;;;;25.15;53.31;100402.88;6283467;22;20028;-90
2021/08/22 11:31:30;;;;;;;4.72;3.83;;;;;;;24.88;55.64;100411.19;6299716;22;20015;-88
2021/08/22 11:34:42;;;;;;;6.00;3.80;;;;;;;24.70;57.18;100401.34;6299568;22;20038;-89
2021/08/22 11:37:21;;;;;;;4.93;3.93;;;;;;;24.59;59.27;100395.34;6286436;22;20019;-85
2021/08/22 11:39:51;;;;;;;5.53;4.47;;;;;;;24.56;59.31;100401.06;6285740;22;20431;-89
2021/08/22 11:42:26;;;;;;;5.45;4.07;;;;;;;24.38;61.51;100401.19;6289828;22;20019;-85
2021/08/22 11:45:14;;;;;;;4.57;4.00;;;;;;;24.20;60.71;100393.09;6285064;22;20040;-86
2021/08/22 11:47:42;;;;;;;5.13;4.55;;;;;;;24.11;62.29;100397.59;6282185;22;20019;-85
2021/08/22 11:50:13;;;;;;;5.95;4.57;;;;;;;23.88;63.28;100379.34;6289176;22;20831;-86
2021/08/22 11:52:55;;;;;;;4.80;3.45;;;;;;;23.43;63.02;100388.41;6290070;22;20366;-86
2021/08/22 11:55:26;;;;;;;5.25;3.38;;;;;;;22.77;64.69;100398.66;6288342;22;20042;-88
2021/08/22 11:58:10;;;;;;;8.60;3.33;;;;;;;22.24;68.26;100418.97;6286070;22;20015;-89
2021/08/22 12:00:47;;;;;;;6.00;2.33;;;;;;;21.07;72.24;100400.25;6294545;22;20401;-87
2021/08/22 12:03:22;;;;;;;6.25;2.60;;;;;;;20.00;80.85;100390.00;6296723;22;20003;-86
2021/08/22 12:06:05;;;;;;;7.13;3.00;;;;;;;19.35;87.13;100392.91;6296013;22;20023;-87
2021/08/22 12:08:47;;;;;;;7.13;3.20;;;;;;;19.00;90.72;100398.50;6267920;23;20074;-83
2021/08/22 12:11:24;;;;;;;5.88;2.80;;;;;;;18.88;93.67;100397.69;6267061;23;20016;-87
2021/08/22 12:14:16;;;;;;;5.47;3.03;;;;;;;18.82;93.92;100396.34;6264016;23;20024;-86
2021/08/22 12:17:06;;;;;;;4.97;3.00;;;;;;;18.78;95.17;100410.13;6261686;23;20089;-85